Butte, Nebraska
Current Conditions -  °F | °C
As of 6:15 AM on Monday 26 Jan 2015 (Local Time) from KONL Reporting Station
Clear Clear  
Wind Chill: 33°   Ceiling: Unl
Heat Index: 41°   Visibility: 10mi
Dew Point: 35°   Wind: 16mph
Humidity: 78%   Direction: 290°WNW
Pressure: 29.88"   Gusts: 21mph
Location:  42.91°N, 98.85°W
Report Text: KONL 261215Z AUTO 29014G18KT 10SM CLR 05/02 A2988 RMK AO2 T00510015
Loading
Personal Weather Stations






























Interactive Weather Map New forecast layout! Learn more

10-Day Weather Forecast

Advertisements
Track Severe Weather on mobile